sensor_id;sensor_type;location;lat;lon;timestamp;pressure;altitude;pressure_sealevel;temperature;humidity
80382;BME280;69692;55.820;37.490;2023-05-07T00:00:28;100829.94;;;1.71;65.36
80382;BME280;69692;55.820;37.490;2023-05-07T00:02:53;100827.44;;;1.60;65.35
80382;BME280;69692;55.820;37.490;2023-05-07T00:05:19;100830.81;;;1.53;65.70
80382;BME280;69692;55.820;37.490;2023-05-07T00:07:45;100838.63;;;1.44;66.57
80382;BME280;69692;55.820;37.490;2023-05-07T00:10:11;100837.81;;;1.44;66.59
80382;BME280;69692;55.820;37.490;2023-05-07T00:12:38;100841.19;;;1.36;66.59
80382;BME280;69692;55.820;37.490;2023-05-07T00:15:04;100835.03;;;1.26;66.28
80382;BME280;69692;55.820;37.490;2023-05-07T00:17:33;100839.09;;;1.21;66.29
80382;BME280;69692;55.820;37.490;2023-05-07T00:19:59;100834.78;;;1.10;66.62
80382;BME280;69692;55.820;37.490;2023-05-07T00:22:25;100838.97;;;1.22;66.21
80382;BME280;69692;55.820;37.490;2023-05-07T00:24:51;100835.03;;;1.26;66.15
80382;BME280;69692;55.820;37.490;2023-05-07T00:27:16;100843.56;;;1.20;66.29
80382;BME280;69692;55.820;37.490;2023-05-07T00:29:42;100834.63;;;1.21;66.64
80382;BME280;69692;55.820;37.490;2023-05-07T00:32:08;100845.09;;;1.23;67.30
80382;BME280;69692;55.820;37.490;2023-05-07T00:34:34;100837.13;;;1.32;66.62
80382;BME280;69692;55.820;37.490;2023-05-07T00:37:01;100850.94;;;1.36;66.18
80382;BME280;69692;55.820;37.490;2023-05-07T00:39:27;100849.97;;;1.27;66.61
80382;BME280;69692;55.820;37.490;2023-05-07T00:41:52;100848.72;;;1.22;67.11
80382;BME280;69692;55.820;37.490;2023-05-07T00:44:18;100843.97;;;1.15;66.67
80382;BME280;69692;55.820;37.490;2023-05-07T00:46:44;100853.59;;;1.26;67.14
80382;BME280;69692;55.820;37.490;2023-05-07T00:49:10;100855.41;;;1.26;66.90
80382;BME280;69692;55.820;37.490;2023-05-07T00:51:36;100847.31;;;1.27;66.93
80382;BME280;69692;55.820;37.490;2023-05-07T00:54:03;100849.38;;;1.33;67.26
80382;BME280;69692;55.820;37.490;2023-05-07T00:56:28;100846.75;;;1.43;66.99
80382;BME280;69692;55.820;37.490;2023-05-07T00:58:55;100849.25;;;1.44;67.29
80382;BME280;69692;55.820;37.490;2023-05-07T01:01:20;100847.72;;;1.42;67.28
80382;BME280;69692;55.820;37.490;2023-05-07T01:03:47;100838.78;;;1.33;66.99
80382;BME280;69692;55.820;37.490;2023-05-07T01:06:13;100840.88;;;1.30;67.05
80382;BME280;69692;55.820;37.490;2023-05-07T01:08:42;100840.50;;;1.25;67.03
80382;BME280;69692;55.820;37.490;2023-05-07T01:11:08;100841.47;;;1.24;66.65
80382;BME280;69692;55.820;37.490;2023-05-07T01:13:36;100849.56;;;1.22;66.55
80382;BME280;69692;55.820;37.490;2023-05-07T01:16:03;100847.47;;;1.16;67.34
80382;BME280;69692;55.820;37.490;2023-05-07T01:18:29;100847.34;;;1.08;67.79
80382;BME280;69692;55.820;37.490;2023-05-07T01:20:59;100853.19;;;1.11;68.02
80382;BME280;69692;55.820;37.490;2023-05-07T01:23:27;100861.69;;;1.15;67.41
80382;BME280;69692;55.820;37.490;2023-05-07T01:25:54;100861.81;;;1.13;68.51
80382;BME280;69692;55.820;37.490;2023-05-07T01:28:22;100860.72;;;1.16;67.75
80382;BME280;69692;55.820;37.490;2023-05-07T01:30:50;100865.88;;;1.17;68.46
80382;BME280;69692;55.820;37.490;2023-05-07T01:33:20;100864.78;;;1.20;68.07
80382;BME280;69692;55.820;37.490;2023-05-07T01:35:51;100866.03;;;1.26;67.20
80382;BME280;69692;55.820;37.490;2023-05-07T01:38:19;100872.31;;;1.25;67.14
80382;BME280;69692;55.820;37.490;2023-05-07T01:40:47;100870.63;;;1.24;67.83
80382;BME280;69692;55.820;37.490;2023-05-07T01:43:13;100877.75;;;1.23;67.26
80382;BME280;69692;55.820;37.490;2023-05-07T01:45:40;100872.28;;;1.15;68.16
80382;BME280;69692;55.820;37.490;2023-05-07T01:48:06;100879.41;;;1.05;67.73
80382;BME280;69692;55.820;37.490;2023-05-07T01:50:33;100876.59;;;0.87;67.80
80382;BME280;69692;55.820;37.490;2023-05-07T01:53:00;100876.06;;;0.93;67.75
80382;BME280;69692;55.820;37.490;2023-05-07T01:55:28;100881.22;;;0.95;67.81
80382;BME280;69692;55.820;37.490;2023-05-07T01:57:53;100879.69;;;0.92;68.14
80382;BME280;69692;55.820;37.490;2023-05-07T02:00:19;100880.78;;;0.80;68.54
80382;BME280;69692;55.820;37.490;2023-05-07T02:02:45;100877.28;;;0.79;68.56
80382;BME280;69692;55.820;37.490;2023-05-07T02:05:23;100879.78;;;0.71;68.67
80382;BME280;69692;55.820;37.490;2023-05-07T02:07:56;100887.16;;;0.68;69.53
80382;BME280;69692;55.820;37.490;2023-05-07T02:10:22;100892.91;;;0.82;68.90
80382;BME280;69692;55.820;37.490;2023-05-07T02:12:48;100892.22;;;0.90;68.03
80382;BME280;69692;55.820;37.490;2023-05-07T02:15:13;100896.00;;;0.97;67.62
80382;BME280;69692;55.820;37.490;2023-05-07T02:17:58;100902.28;;;0.96;68.04
80382;BME280;69692;55.820;37.490;2023-05-07T02:20:24;100909.50;;;1.04;67.80
80382;BME280;69692;55.820;37.490;2023-05-07T02:23:10;100899.22;;;1.10;67.11
80382;BME280;69692;55.820;37.490;2023-05-07T02:25:36;100907.59;;;1.06;67.46
80382;BME280;69692;55.820;37.490;2023-05-07T02:28:01;100915.25;;;0.99;67.43
80382;BME280;69692;55.820;37.490;2023-05-07T02:30:40;100909.63;;;0.83;68.31
80382;BME280;69692;55.820;37.490;2023-05-07T02:33:06;100912.56;;;0.80;68.54
80382;BME280;69692;55.820;37.490;2023-05-07T02:35:33;100917.59;;;0.83;67.87
80382;BME280;69692;55.820;37.490;2023-05-07T02:38:00;100917.31;;;0.86;68.01
80382;BME280;69692;55.820;37.490;2023-05-07T02:40:25;100925.56;;;0.93;68.56
80382;BME280;69692;55.820;37.490;2023-05-07T02:42:51;100920.38;;;0.81;67.81
80382;BME280;69692;55.820;37.490;2023-05-07T02:45:17;100927.75;;;0.78;68.79
80382;BME280;69692;55.820;37.490;2023-05-07T02:47:44;100926.38;;;0.83;68.03
80382;BME280;69692;55.820;37.490;2023-05-07T02:50:11;100934.63;;;0.90;68.52
80382;BME280;69692;55.820;37.490;2023-05-07T02:52:36;100936.53;;;0.88;68.75
80382;BME280;69692;55.820;37.490;2023-05-07T02:55:02;100929.28;;;0.80;68.80
80382;BME280;69692;55.820;37.490;2023-05-07T02:57:29;100938.53;;;0.96;67.51
80382;BME280;69692;55.820;37.490;2023-05-07T02:59:55;100932.94;;;0.99;67.31
80382;BME280;69692;55.820;37.490;2023-05-07T03:02:21;100938.53;;;0.96;67.73
80382;BME280;69692;55.820;37.490;2023-05-07T03:04:47;100944.84;;;1.04;67.66
80382;BME280;69692;55.820;37.490;2023-05-07T03:07:13;100940.91;;;1.18;66.82
80382;BME280;69692;55.820;37.490;2023-05-07T03:09:39;100945.53;;;1.26;67.46
80382;BME280;69692;55.820;37.490;2023-05-07T03:12:06;100950.28;;;1.22;66.90
80382;BME280;69692;55.820;37.490;2023-05-07T03:14:31;100942.19;;;1.24;67.41
80382;BME280;69692;55.820;37.490;2023-05-07T03:16:57;100948.06;;;1.37;66.28
80382;BME280;69692;55.820;37.490;2023-05-07T03:19:23;100942.34;;;1.51;65.97
80382;BME280;69692;55.820;37.490;2023-05-07T03:21:49;100956.84;;;1.47;65.76
80382;BME280;69692;55.820;37.490;2023-05-07T03:24:14;100956.72;;;1.58;65.88
80382;BME280;69692;55.820;37.490;2023-05-07T03:26:40;100958.25;;;1.70;65.49
80382;BME280;69692;55.820;37.490;2023-05-07T03:29:06;100959.22;;;1.79;64.78
80382;BME280;69692;55.820;37.490;2023-05-07T03:31:32;100962.97;;;1.86;64.87
80382;BME280;69692;55.820;37.490;2023-05-07T03:34:00;100971.19;;;1.93;64.83
80382;BME280;69692;55.820;37.490;2023-05-07T03:36:25;100963.75;;;2.06;64.06
80382;BME280;69692;55.820;37.490;2023-05-07T03:38:55;100967.53;;;2.13;64.01
80382;BME280;69692;55.820;37.490;2023-05-07T03:41:24;100973.09;;;2.29;63.54
80382;BME280;69692;55.820;37.490;2023-05-07T03:43:51;100968.09;;;2.17;63.44
80382;BME280;69692;55.820;37.490;2023-05-07T03:46:17;100967.09;;;2.18;63.72
80382;BME280;69692;55.820;37.490;2023-05-07T03:48:43;100964.44;;;2.27;63.26
80382;BME280;69692;55.820;37.490;2023-05-07T03:51:11;100964.16;;;2.21;63.36
80382;BME280;69692;55.820;37.490;2023-05-07T03:53:37;100971.13;;;2.31;62.36
80382;BME280;69692;55.820;37.490;2023-05-07T03:56:03;100966.66;;;2.32;63.13
80382;BME280;69692;55.820;37.490;2023-05-07T03:58:33;100972.78;;;2.32;63.04
80382;BME280;69692;55.820;37.490;2023-05-07T04:01:04;100975.00;;;2.37;62.75
80382;BME280;69692;55.820;37.490;2023-05-07T04:03:29;100981.56;;;2.43;62.50
80382;BME280;69692;55.820;37.490;2023-05-07T04:05:58;100988.16;;;2.38;61.89
80382;BME280;69692;55.820;37.490;2023-05-07T04:08:23;100983.34;;;2.52;62.00
80382;BME280;69692;55.820;37.490;2023-05-07T04:10:58;100983.63;;;2.58;61.49
80382;BME280;69692;55.820;37.490;2023-05-07T04:13:29;100993.84;;;2.81;60.56
80382;BME280;69692;55.820;37.490;2023-05-07T04:15:55;100990.81;;;2.76;60.66
80382;BME280;69692;55.820;37.490;2023-05-07T04:18:22;100985.69;;;2.92;60.50
80382;BME280;69692;55.820;37.490;2023-05-07T04:20:48;100990.97;;;3.02;60.38
80382;BME280;69692;55.820;37.490;2023-05-07T04:23:17;100989.78;;;3.14;59.83
80382;BME280;69692;55.820;37.490;2023-05-07T04:25:43;100984.38;;;3.23;59.15
80382;BME280;69692;55.820;37.490;2023-05-07T04:28:26;100996.50;;;3.08;59.71
80382;BME280;69692;55.820;37.490;2023-05-07T04:30:51;100985.78;;;3.27;59.71
80382;BME280;69692;55.820;37.490;2023-05-07T04:33:19;100993.00;;;3.35;59.18
80382;BME280;69692;55.820;37.490;2023-05-07T04:35:46;100986.84;;;3.35;59.12
80382;BME280;69692;55.820;37.490;2023-05-07T04:38:12;100991.09;;;3.45;58.01
80382;BME280;69692;55.820;37.490;2023-05-07T04:40:38;100992.63;;;3.48;58.05
80382;BME280;69692;55.820;37.490;2023-05-07T04:43:05;100994.13;;;3.68;58.68
80382;BME280;69692;55.820;37.490;2023-05-07T04:45:39;100999.31;;;3.70;57.49
80382;BME280;69692;55.820;37.490;2023-05-07T04:48:09;101001.81;;;3.71;57.45
80382;BME280;69692;55.820;37.490;2023-05-07T04:50:37;100999.31;;;3.87;56.77
80382;BME280;69692;55.820;37.490;2023-05-07T04:53:03;101004.59;;;4.05;56.33
80382;BME280;69692;55.820;37.490;2023-05-07T04:55:30;100995.66;;;4.14;56.71
80382;BME280;69692;55.820;37.490;2023-05-07T04:57:56;100992.44;;;4.29;56.88
80382;BME280;69692;55.820;37.490;2023-05-07T05:00:22;100999.50;;;4.38;54.53
80382;BME280;69692;55.820;37.490;2023-05-07T05:02:51;101000.09;;;4.49;55.32
80382;BME280;69692;55.820;37.490;2023-05-07T05:05:19;100991.41;;;4.47;54.09
80382;BME280;69692;55.820;37.490;2023-05-07T05:07:46;100997.94;;;4.53;53.24
80382;BME280;69692;55.820;37.490;2023-05-07T05:10:12;100996.00;;;4.63;53.41
80382;BME280;69692;55.820;37.490;2023-05-07T05:12:39;100997.66;;;4.64;52.74
80382;BME280;69692;55.820;37.490;2023-05-07T05:15:06;100995.03;;;4.72;52.86
80382;BME280;69692;55.820;37.490;2023-05-07T05:17:32;100996.91;;;4.80;52.09
80382;BME280;69692;55.820;37.490;2023-05-07T05:20:01;100993.81;;;5.01;52.58
80382;BME280;69692;55.820;37.490;2023-05-07T05:22:28;101000.69;;;5.12;50.88
80382;BME280;69692;55.820;37.490;2023-05-07T05:24:57;101000.91;;;5.26;51.69
80382;BME280;69692;55.820;37.490;2023-05-07T05:27:24;101005.25;;;5.27;49.69
80382;BME280;69692;55.820;37.490;2023-05-07T05:29:50;101006.53;;;5.15;49.16
80382;BME280;69692;55.820;37.490;2023-05-07T05:32:16;101006.03;;;5.20;48.69
80382;BME280;69692;55.820;37.490;2023-05-07T05:34:42;101013.25;;;5.35;50.74
80382;BME280;69692;55.820;37.490;2023-05-07T05:37:08;101010.28;;;5.47;49.45
80382;BME280;69692;55.820;37.490;2023-05-07T05:39:34;101013.66;;;5.57;50.63
80382;BME280;69692;55.820;37.490;2023-05-07T05:41:59;101016.19;;;5.66;48.84
80382;BME280;69692;55.820;37.490;2023-05-07T05:44:26;101008.31;;;5.65;48.02
80382;BME280;69692;55.820;37.490;2023-05-07T05:46:52;101013.16;;;5.61;48.05
80382;BME280;69692;55.820;37.490;2023-05-07T05:49:21;101014.31;;;5.59;48.85
80382;BME280;69692;55.820;37.490;2023-05-07T05:51:48;101012.69;;;5.66;48.36
80382;BME280;69692;55.820;37.490;2023-05-07T05:54:14;101012.97;;;5.55;48.02
80382;BME280;69692;55.820;37.490;2023-05-07T05:56:41;101016.78;;;5.44;47.60
80382;BME280;69692;55.820;37.490;2023-05-07T05:59:07;101028.13;;;5.38;47.97
80382;BME280;69692;55.820;37.490;2023-05-07T06:01:33;101018.59;;;5.35;48.05
80382;BME280;69692;55.820;37.490;2023-05-07T06:04:01;101024.97;;;5.43;47.85
80382;BME280;69692;55.820;37.490;2023-05-07T06:06:28;101029.16;;;5.53;47.25
80382;BME280;69692;55.820;37.490;2023-05-07T06:08:54;101019.63;;;5.43;47.56
80382;BME280;69692;55.820;37.490;2023-05-07T06:11:25;101022.31;;;5.51;47.85
80382;BME280;69692;55.820;37.490;2023-05-07T06:13:51;101025.19;;;5.65;47.08
80382;BME280;69692;55.820;37.490;2023-05-07T06:16:17;101029.84;;;5.72;45.64
80382;BME280;69692;55.820;37.490;2023-05-07T06:18:43;101019.28;;;5.46;45.55
80382;BME280;69692;55.820;37.490;2023-05-07T06:21:13;101021.59;;;6.79;57.49
80382;BME280;69692;55.820;37.490;2023-05-07T06:23:39;101015.75;;;7.99;43.17
80382;BME280;69692;55.820;37.490;2023-05-07T06:26:06;101010.25;;;8.16;41.61
80382;BME280;69692;55.820;37.490;2023-05-07T06:28:38;101008.91;;;7.97;41.23
80382;BME280;69692;55.820;37.490;2023-05-07T06:31:16;101016.47;;;7.70;42.00
80382;BME280;69692;55.820;37.490;2023-05-07T06:33:48;101007.16;;;7.58;41.55
80382;BME280;69692;55.820;37.490;2023-05-07T06:36:14;101030.72;;;7.40;41.84
80382;BME280;69692;55.820;37.490;2023-05-07T06:38:40;101023.56;;;7.32;40.81
80382;BME280;69692;55.820;37.490;2023-05-07T06:41:07;101023.56;;;7.32;40.59
80382;BME280;69692;55.820;37.490;2023-05-07T06:43:33;101023.63;;;6.85;40.72
80382;BME280;69692;55.820;37.490;2023-05-07T06:46:17;101021.00;;;6.61;41.36
80382;BME280;69692;55.820;37.490;2023-05-07T06:48:42;101025.69;;;6.58;40.88
80382;BME280;69692;55.820;37.490;2023-05-07T06:51:08;101019.81;;;6.63;39.06
80382;BME280;69692;55.820;37.490;2023-05-07T06:53:35;101018.00;;;6.47;40.27
80382;BME280;69692;55.820;37.490;2023-05-07T06:56:04;101025.34;;;6.53;39.50
80382;BME280;69692;55.820;37.490;2023-05-07T06:58:29;101024.47;;;6.69;38.66
80382;BME280;69692;55.820;37.490;2023-05-07T07:00:55;101019.75;;;6.87;39.37
80382;BME280;69692;55.820;37.490;2023-05-07T07:03:22;101022.44;;;6.79;38.96
80382;BME280;69692;55.820;37.490;2023-05-07T07:05:51;101011.25;;;6.76;41.05
80382;BME280;69692;55.820;37.490;2023-05-07T07:08:17;101024.16;;;6.64;40.19
80382;BME280;69692;55.820;37.490;2023-05-07T07:10:43;101019.47;;;6.74;38.68
80382;BME280;69692;55.820;37.490;2023-05-07T07:13:11;101023.63;;;6.69;38.05
80382;BME280;69692;55.820;37.490;2023-05-07T07:15:37;101021.97;;;6.68;38.06
80382;BME280;69692;55.820;37.490;2023-05-07T07:18:03;101012.78;;;6.70;38.70
80382;BME280;69692;55.820;37.490;2023-05-07T07:20:29;101019.34;;;7.07;38.04
80382;BME280;69692;55.820;37.490;2023-05-07T07:22:55;101012.88;;;7.32;38.38
80382;BME280;69692;55.820;37.490;2023-05-07T07:25:20;101007.22;;;7.50;36.40
80382;BME280;69692;55.820;37.490;2023-05-07T07:27:47;101020.16;;;7.15;37.00
80382;BME280;69692;55.820;37.490;2023-05-07T07:30:14;101006.56;;;6.86;34.81
80382;BME280;69692;55.820;37.490;2023-05-07T07:32:42;101015.28;;;6.72;36.17
80382;BME280;69692;55.820;37.490;2023-05-07T07:35:08;101020.00;;;6.53;36.63
80382;BME280;69692;55.820;37.490;2023-05-07T07:37:35;101019.50;;;6.58;36.54
80382;BME280;69692;55.820;37.490;2023-05-07T07:40:01;101028.97;;;6.77;36.76
80382;BME280;69692;55.820;37.490;2023-05-07T07:42:27;101018.53;;;6.98;38.16
80382;BME280;69692;55.820;37.490;2023-05-07T07:44:55;101009.44;;;7.69;36.01
80382;BME280;69692;55.820;37.490;2023-05-07T07:47:22;101016.09;;;8.19;34.65
80382;BME280;69692;55.820;37.490;2023-05-07T07:49:50;101001.75;;;8.35;34.35
80382;BME280;69692;55.820;37.490;2023-05-07T07:52:15;101010.28;;;7.93;33.34
80382;BME280;69692;55.820;37.490;2023-05-07T07:54:44;101013.31;;;7.44;33.79
80382;BME280;69692;55.820;37.490;2023-05-07T07:57:10;101009.94;;;7.42;34.20
80382;BME280;69692;55.820;37.490;2023-05-07T07:59:36;101000.94;;;7.66;34.30
80382;BME280;69692;55.820;37.490;2023-05-07T08:02:03;101007.88;;;7.52;35.89
80382;BME280;69692;55.820;37.490;2023-05-07T08:04:29;100999.06;;;8.12;37.25
80382;BME280;69692;55.820;37.490;2023-05-07T08:07:00;100999.25;;;8.78;33.50
80382;BME280;69692;55.820;37.490;2023-05-07T08:09:26;101002.56;;;9.09;32.87
80382;BME280;69692;55.820;37.490;2023-05-07T08:11:53;100997.72;;;9.19;32.94
80382;BME280;69692;55.820;37.490;2023-05-07T08:14:19;101008.44;;;9.34;32.23
80382;BME280;69692;55.820;37.490;2023-05-07T08:16:47;101009.16;;;9.43;33.60
80382;BME280;69692;55.820;37.490;2023-05-07T08:19:12;101007.53;;;9.27;31.48
80382;BME280;69692;55.820;37.490;2023-05-07T08:21:39;101001.00;;;9.00;31.30
80382;BME280;69692;55.820;37.490;2023-05-07T08:24:06;101001.47;;;8.89;31.61
80382;BME280;69692;55.820;37.490;2023-05-07T08:26:32;100993.97;;;8.99;32.09
80382;BME280;69692;55.820;37.490;2023-05-07T08:28:57;100997.31;;;8.86;31.08
80382;BME280;69692;55.820;37.490;2023-05-07T08:31:24;101000.44;;;8.90;32.54
80382;BME280;69692;55.820;37.490;2023-05-07T08:33:50;100999.41;;;9.06;30.00
80382;BME280;69692;55.820;37.490;2023-05-07T08:36:16;101003.44;;;9.31;31.11
80382;BME280;69692;55.820;37.490;2023-05-07T08:38:41;100996.19;;;9.46;29.12
80382;BME280;69692;55.820;37.490;2023-05-07T08:41:10;100991.13;;;9.79;30.53
80382;BME280;69692;55.820;37.490;2023-05-07T08:43:38;100992.13;;;9.72;30.34
80382;BME280;69692;55.820;37.490;2023-05-07T08:46:09;100993.88;;;9.65;29.74
80382;BME280;69692;55.820;37.490;2023-05-07T08:48:37;100996.81;;;9.12;30.32
80382;BME280;69692;55.820;37.490;2023-05-07T08:51:11;100998.53;;;8.54;30.44
80382;BME280;69692;55.820;37.490;2023-05-07T08:53:40;100993.34;;;8.30;32.14
80382;BME280;69692;55.820;37.490;2023-05-07T08:56:08;100994.91;;;8.62;31.66
80382;BME280;69692;55.820;37.490;2023-05-07T08:58:35;100985.03;;;9.28;32.07
80382;BME280;69692;55.820;37.490;2023-05-07T09:01:08;100977.56;;;9.45;29.61
80382;BME280;69692;55.820;37.490;2023-05-07T09:03:34;100982.31;;;9.85;30.80
80382;BME280;69692;55.820;37.490;2023-05-07T09:06:00;100990.91;;;11.27;51.19
80382;BME280;69692;55.820;37.490;2023-05-07T09:08:27;100990.94;;;13.51;41.81
80382;BME280;69692;55.820;37.490;2023-05-07T09:10:56;100965.94;;;14.80;26.44
80382;BME280;69692;55.820;37.490;2023-05-07T09:13:22;100967.09;;;14.90;25.82
80382;BME280;69692;55.820;37.490;2023-05-07T09:15:49;100976.00;;;13.48;25.51
80382;BME280;69692;55.820;37.490;2023-05-07T09:18:15;100976.97;;;12.24;27.23
80382;BME280;69692;55.820;37.490;2023-05-07T09:20:41;100990.53;;;11.44;27.09
80382;BME280;69692;55.820;37.490;2023-05-07T09:23:08;100986.91;;;10.69;28.29
80382;BME280;69692;55.820;37.490;2023-05-07T09:25:36;100986.94;;;10.20;30.34
80382;BME280;69692;55.820;37.490;2023-05-07T09:28:08;100984.38;;;10.11;29.74
80382;BME280;69692;55.820;37.490;2023-05-07T09:30:36;100982.66;;;10.53;28.49
80382;BME280;69692;55.820;37.490;2023-05-07T09:33:04;100984.47;;;10.81;29.57
80382;BME280;69692;55.820;37.490;2023-05-07T09:35:33;100983.63;;;10.73;29.71
80382;BME280;69692;55.820;37.490;2023-05-07T09:38:04;100982.66;;;10.53;29.27
80382;BME280;69692;55.820;37.490;2023-05-07T09:40:32;100981.72;;;10.67;29.15
80382;BME280;69692;55.820;37.490;2023-05-07T09:43:13;100983.38;;;10.34;28.02
80382;BME280;69692;55.820;37.490;2023-05-07T09:45:51;100975.44;;;10.04;31.79
80382;BME280;69692;55.820;37.490;2023-05-07T09:48:19;100980.66;;;9.84;30.07
80382;BME280;69692;55.820;37.490;2023-05-07T09:50:49;100991.34;;;9.56;29.71
80382;BME280;69692;55.820;37.490;2023-05-07T09:53:20;100984.66;;;9.31;30.25
80382;BME280;69692;55.820;37.490;2023-05-07T09:55:47;100984.66;;;9.31;30.03
80382;BME280;69692;55.820;37.490;2023-05-07T09:58:14;100982.06;;;9.80;30.01
80382;BME280;69692;55.820;37.490;2023-05-07T10:00:42;100983.69;;;11.41;50.93
80382;BME280;69692;55.820;37.490;2023-05-07T10:03:12;100961.84;;;12.23;27.81
80382;BME280;69692;55.820;37.490;2023-05-07T10:05:53;100967.13;;;12.76;26.30
80382;BME280;69692;55.820;37.490;2023-05-07T10:08:20;100961.97;;;12.68;25.92
80382;BME280;69692;55.820;37.490;2023-05-07T10:10:49;100960.22;;;12.87;26.82
80382;BME280;69692;55.820;37.490;2023-05-07T10:13:20;100968.19;;;12.62;26.57
80382;BME280;69692;55.820;37.490;2023-05-07T10:15:50;100961.63;;;12.12;27.79
80382;BME280;69692;55.820;37.490;2023-05-07T10:18:19;100968.47;;;11.94;27.02
80382;BME280;69692;55.820;37.490;2023-05-07T10:20:51;100963.22;;;11.47;27.73
80382;BME280;69692;55.820;37.490;2023-05-07T10:23:23;100960.63;;;11.19;29.22
80382;BME280;69692;55.820;37.490;2023-05-07T10:25:50;100974.59;;;10.88;27.84
80382;BME280;69692;55.820;37.490;2023-05-07T10:28:23;100978.16;;;10.60;29.07
80382;BME280;69692;55.820;37.490;2023-05-07T10:33:29;100965.09;;;9.80;29.38
80382;BME280;69692;55.820;37.490;2023-05-07T10:36:00;100974.63;;;9.40;30.09
80382;BME280;69692;55.820;37.490;2023-05-07T10:38:27;100966.28;;;10.48;28.28
80382;BME280;69692;55.820;37.490;2023-05-07T10:40:53;100958.66;;;11.47;27.73
80382;BME280;69692;55.820;37.490;2023-05-07T10:43:19;100961.22;;;12.08;26.84
80382;BME280;69692;55.820;37.490;2023-05-07T10:46:26;100958.75;;;12.98;25.53
80382;BME280;69692;55.820;37.490;2023-05-07T10:51:41;100952.84;;;12.56;25.07
80382;BME280;69692;55.820;37.490;2023-05-07T10:54:19;100944.59;;;12.18;25.79
80382;BME280;69692;55.820;37.490;2023-05-07T10:56:54;100968.09;;;11.23;27.24
80382;BME280;69692;55.820;37.490;2023-05-07T10:59:31;100969.66;;;10.98;27.24
80382;BME280;69692;55.820;37.490;2023-05-07T11:02:05;100976.59;;;10.79;27.58
80382;BME280;69692;55.820;37.490;2023-05-07T11:04:38;100979.41;;;10.08;27.73
80382;BME280;69692;55.820;37.490;2023-05-07T11:07:24;100985.31;;;10.47;28.31
80382;BME280;69692;55.820;37.490;2023-05-07T11:15:02;100956.81;;;12.53;25.01
80382;BME280;69692;55.820;37.490;2023-05-07T11:17:34;100958.28;;;12.43;25.55
80382;BME280;69692;55.820;37.490;2023-05-07T11:20:04;100953.31;;;11.87;25.12
80382;BME280;69692;55.820;37.490;2023-05-07T11:22:56;100950.63;;;12.00;25.61
80382;BME280;69692;55.820;37.490;2023-05-07T11:25:44;100957.28;;;11.98;24.96
80382;BME280;69692;55.820;37.490;2023-05-07T11:28:18;100950.38;;;12.35;25.02
80382;BME280;69692;55.820;37.490;2023-05-07T11:30:54;100969.31;;;11.14;27.11
80382;BME280;69692;55.820;37.490;2023-05-07T11:33:20;100974.34;;;10.83;27.56
80382;BME280;69692;55.820;37.490;2023-05-07T11:35:50;100972.19;;;10.65;29.10
80382;BME280;69692;55.820;37.490;2023-05-07T11:38:18;100976.25;;;10.54;27.75
80382;BME280;69692;55.820;37.490;2023-05-07T11:41:02;100981.41;;;10.49;28.17
80382;BME280;69692;55.820;37.490;2023-05-07T11:43:31;100977.38;;;10.38;29.24
80382;BME280;69692;55.820;37.490;2023-05-07T11:46:09;100991.03;;;10.37;29.62
80382;BME280;69692;55.820;37.490;2023-05-07T11:48:35;100981.41;;;10.21;30.15
80382;BME280;69692;55.820;37.490;2023-05-07T11:51:03;100989.28;;;10.23;30.43
80382;BME280;69692;55.820;37.490;2023-05-07T11:53:38;100987.91;;;10.33;30.83
80382;BME280;69692;55.820;37.490;2023-05-07T11:58:34;100985.16;;;10.55;29.41
80382;BME280;69692;55.820;37.490;2023-05-07T12:01:00;100986.41;;;10.87;31.24
80382;BME280;69692;55.820;37.490;2023-05-07T12:03:25;100975.84;;;11.46;28.57
80382;BME280;69692;55.820;37.490;2023-05-07T12:05:51;100974.91;;;12.00;28.12
80382;BME280;69692;55.820;37.490;2023-05-07T12:08:18;100974.41;;;12.63;26.28
80382;BME280;69692;55.820;37.490;2023-05-07T12:10:44;100968.03;;;13.08;27.08
80382;BME280;69692;55.820;37.490;2023-05-07T12:13:21;100961.53;;;13.29;25.26
80382;BME280;69692;55.820;37.490;2023-05-07T12:15:51;100964.06;;;12.46;23.94
80382;BME280;69692;55.820;37.490;2023-05-07T12:18:17;100960.38;;;11.88;24.98
80382;BME280;69692;55.820;37.490;2023-05-07T12:20:42;100960.78;;;12.38;24.82
80382;BME280;69692;55.820;37.490;2023-05-07T12:23:09;100955.66;;;12.88;24.77
80382;BME280;69692;55.820;37.490;2023-05-07T12:25:36;100954.94;;;13.19;25.25
80382;BME280;69692;55.820;37.490;2023-05-07T12:28:03;100949.91;;;12.64;25.21
80382;BME280;69692;55.820;37.490;2023-05-07T12:30:36;100963.91;;;11.95;26.01
80382;BME280;69692;55.820;37.490;2023-05-07T12:33:02;100957.44;;;11.63;26.89
80382;BME280;69692;55.820;37.490;2023-05-07T12:35:32;100958.28;;;12.36;25.89
80382;BME280;69692;55.820;37.490;2023-05-07T12:38:01;100958.69;;;12.33;25.39
80382;BME280;69692;55.820;37.490;2023-05-07T12:40:49;100955.41;;;11.98;26.07
80382;BME280;69692;55.820;37.490;2023-05-07T12:43:26;100950.16;;;12.43;25.42
80382;BME280;69692;55.820;37.490;2023-05-07T12:45:54;100955.94;;;11.54;26.07
80382;BME280;69692;55.820;37.490;2023-05-07T12:48:20;100956.25;;;11.11;27.25
80382;BME280;69692;55.820;37.490;2023-05-07T12:50:51;100957.53;;;10.74;27.94
80382;BME280;69692;55.820;37.490;2023-05-07T12:53:20;100964.00;;;10.45;28.71
80382;BME280;69692;55.820;37.490;2023-05-07T12:55:48;100968.38;;;10.25;28.67
80382;BME280;69692;55.820;37.490;2023-05-07T12:58:19;100959.13;;;10.06;29.07
80382;BME280;69692;55.820;37.490;2023-05-07T13:00:48;100961.63;;;10.07;27.84
80382;BME280;69692;55.820;37.490;2023-05-07T13:03:42;100959.28;;;9.98;28.92
80382;BME280;69692;55.820;37.490;2023-05-07T13:06:08;100944.50;;;9.87;28.31